createdAt,value
2019-05-10T00:01:32.722Z,12.03
2019-05-10T00:04:19.557Z,11.97
2019-05-10T00:07:06.541Z,11.97
2019-05-10T00:09:34.613Z,11.96
2019-05-10T00:12:19.948Z,11.99
2019-05-10T00:14:50.723Z,11.93
2019-05-10T00:17:20.911Z,11.83
2019-05-10T00:19:49.941Z,11.86
2019-05-10T00:22:18.915Z,11.95
2019-05-10T00:25:02.129Z,12.00
2019-05-10T00:27:16.746Z,11.79
2019-05-10T00:29:45.669Z,11.86
2019-05-10T00:32:14.654Z,11.88
2019-05-10T00:34:43.504Z,11.85
2019-05-10T00:37:12.510Z,11.93
2019-05-10T00:39:41.403Z,11.87
2019-05-10T00:42:10.347Z,11.82
2019-05-10T00:44:39.191Z,11.90
2019-05-10T00:47:08.103Z,11.97
2019-05-10T00:49:37.038Z,11.88
2019-05-10T00:52:05.984Z,11.82
2019-05-10T00:54:34.875Z,11.80
2019-05-10T00:57:03.790Z,11.86
2019-05-10T00:59:32.761Z,11.85
2019-05-10T01:02:01.734Z,11.88
2019-05-10T01:04:30.672Z,11.82
2019-05-10T01:06:59.561Z,11.74
2019-05-10T01:09:28.539Z,11.76
2019-05-10T01:11:57.404Z,11.70
2019-05-10T01:14:26.329Z,11.74
2019-05-10T01:16:55.288Z,11.79
2019-05-10T01:19:24.202Z,11.85
2019-05-10T01:21:53.190Z,11.70
2019-05-10T01:24:22.087Z,11.67
2019-05-10T01:26:51.060Z,11.73
2019-05-10T01:29:21.198Z,11.79
2019-05-10T01:31:50.122Z,11.78
2019-05-10T01:34:19.043Z,11.72
2019-05-10T01:36:47.924Z,11.71
2019-05-10T01:39:16.849Z,11.74
2019-05-10T01:41:45.733Z,11.73
2019-05-10T01:44:14.656Z,11.75
2019-05-10T01:46:43.658Z,11.71
2019-05-10T01:49:12.534Z,11.80
2019-05-10T01:51:41.610Z,11.87
2019-05-10T01:54:10.467Z,12.16
2019-05-10T01:56:39.387Z,11.89
2019-05-10T01:59:08.328Z,11.86
2019-05-10T02:01:37.249Z,11.82
2019-05-10T02:04:06.170Z,11.76
2019-05-10T02:06:35.099Z,11.83
2019-05-10T02:09:05.217Z,11.73
2019-05-10T02:11:34.161Z,11.81
2019-05-10T02:14:03.102Z,11.86
2019-05-10T02:16:32.055Z,11.88
2019-05-10T02:19:00.948Z,11.88
2019-05-10T02:21:29.903Z,11.88
2019-05-10T02:23:58.824Z,11.87
2019-05-10T02:26:27.731Z,11.86
2019-05-10T02:28:56.648Z,11.82
2019-05-10T02:31:25.599Z,11.79
2019-05-10T02:33:54.476Z,11.76
2019-05-10T02:36:23.407Z,11.78
2019-05-10T02:38:52.298Z,11.80
2019-05-10T02:41:21.204Z,11.82
2019-05-10T02:43:50.122Z,11.89
2019-05-10T02:46:19.105Z,11.90
2019-05-10T02:48:48.002Z,11.91
2019-05-10T02:51:16.901Z,11.93
2019-05-10T02:53:45.794Z,12.19
2019-05-10T02:56:29.840Z,11.97
2019-05-10T02:58:43.676Z,11.85
2019-05-10T03:01:12.731Z,11.85
2019-05-10T03:03:41.669Z,11.85
2019-05-10T03:06:10.600Z,11.77
2019-05-10T03:08:48.845Z,11.74
2019-05-10T03:11:17.773Z,11.76
2019-05-10T03:13:49.935Z,11.81
2019-05-10T03:16:19.284Z,11.78
2019-05-10T03:18:48.324Z,11.77
2019-05-10T03:21:17.702Z,11.80
2019-05-10T03:23:47.104Z,11.79
2019-05-10T03:26:16.047Z,11.76
2019-05-10T03:28:44.996Z,11.74
2019-05-10T03:31:13.917Z,11.71
2019-05-10T03:33:42.844Z,11.70
2019-05-10T03:36:11.732Z,11.96
2019-05-10T03:38:40.663Z,11.75
2019-05-10T03:41:09.618Z,12.04
2019-05-10T03:43:38.595Z,11.86
2019-05-10T03:46:07.559Z,11.81
2019-05-10T03:48:36.469Z,11.81
2019-05-10T03:51:05.564Z,11.79
2019-05-10T03:53:34.475Z,11.71
2019-05-10T03:56:03.397Z,11.65
2019-05-10T03:58:32.302Z,11.61
2019-05-10T04:01:01.243Z,11.52
2019-05-10T04:03:30.155Z,11.54
2019-05-10T04:05:59.044Z,11.45
2019-05-10T04:08:27.958Z,11.44
2019-05-10T04:10:56.895Z,11.42
2019-05-10T04:13:25.808Z,11.41
2019-05-10T04:15:57.397Z,11.46
2019-05-10T04:18:26.304Z,11.49
2019-05-10T04:20:55.303Z,11.48
2019-05-10T04:23:24.169Z,11.45
2019-05-10T04:25:53.085Z,11.71
2019-05-10T04:28:21.964Z,11.51
2019-05-10T04:30:50.875Z,11.45
2019-05-10T04:33:19.779Z,11.35
2019-05-10T04:35:48.684Z,11.29
2019-05-10T04:38:17.616Z,11.23
2019-05-10T04:40:46.569Z,11.22
2019-05-10T04:43:15.510Z,11.19
2019-05-10T04:45:44.424Z,11.18
2019-05-10T04:48:13.358Z,11.23
2019-05-10T04:50:42.276Z,11.20
2019-05-10T04:53:11.181Z,11.34
2019-05-10T04:55:40.108Z,11.40
2019-05-10T04:58:09.161Z,11.42
2019-05-10T05:00:38.044Z,11.48
2019-05-10T05:03:07.135Z,11.50
2019-05-10T05:05:36.006Z,11.56
2019-05-10T05:08:06.419Z,11.47
2019-05-10T05:10:34.033Z,11.41
2019-05-10T05:13:02.896Z,11.43
2019-05-10T05:15:31.816Z,11.34
2019-05-10T05:18:00.708Z,11.41
2019-05-10T05:20:29.645Z,11.36
2019-05-10T05:22:58.535Z,11.36
2019-05-10T05:25:27.444Z,11.37
2019-05-10T05:28:07.474Z,11.41
2019-05-10T05:30:25.285Z,11.35
2019-05-10T05:32:56.870Z,11.35
2019-05-10T05:35:23.150Z,11.59
2019-05-10T05:37:52.049Z,11.24
2019-05-10T05:40:20.965Z,11.23
2019-05-10T05:42:49.885Z,11.20
2019-05-10T05:45:18.786Z,11.58
2019-05-10T05:47:47.715Z,11.44
2019-05-10T05:50:16.619Z,11.38
2019-05-10T05:52:45.567Z,11.43
2019-05-10T05:55:14.450Z,11.51
2019-05-10T05:57:43.356Z,11.58
2019-05-10T06:00:12.244Z,11.59
2019-05-10T06:02:44.922Z,11.59
2019-05-10T06:05:10.086Z,11.62
2019-05-10T06:07:39.527Z,11.66
2019-05-10T06:10:10.319Z,11.72
2019-05-10T06:12:37.074Z,11.79
2019-05-10T06:15:06.474Z,11.85
2019-05-10T06:17:35.496Z,11.92
2019-05-10T06:20:06.093Z,11.92
2019-05-10T06:22:38.072Z,11.97
2019-05-10T06:25:03.334Z,12.02
2019-05-10T06:27:35.392Z,11.94
2019-05-10T06:30:01.069Z,11.94
2019-05-10T06:32:29.994Z,11.98
2019-05-10T06:34:58.937Z,12.00
2019-05-10T06:37:31.256Z,11.96
2019-05-10T06:39:56.790Z,12.00
2019-05-10T06:42:28.915Z,12.04
2019-05-10T06:44:54.722Z,12.52
2019-05-10T06:47:23.586Z,12.75
2019-05-10T06:49:52.568Z,12.54
2019-05-10T06:52:21.779Z,12.55
2019-05-10T06:54:50.432Z,12.52
2019-05-10T06:57:19.415Z,12.46
2019-05-10T06:59:48.182Z,12.45
2019-05-10T07:02:19.995Z,12.46
2019-05-10T07:04:46.026Z,12.48
2019-05-10T07:07:22.414Z,12.88
2019-05-10T07:10:03.715Z,13.03
2019-05-10T07:12:15.326Z,12.76
2019-05-10T07:14:46.377Z,12.70
2019-05-10T07:17:11.867Z,12.61
2019-05-10T07:19:50.169Z,12.58
2019-05-10T07:22:09.662Z,12.46
2019-05-10T07:24:38.634Z,12.48
2019-05-10T07:27:08.287Z,12.45
2019-05-10T07:29:43.281Z,12.76
2019-05-10T07:32:06.105Z,12.51
2019-05-10T07:34:35.023Z,12.47
2019-05-10T07:37:04.019Z,12.50
2019-05-10T07:39:32.888Z,12.56
2019-05-10T07:42:06.615Z,12.62
2019-05-10T07:44:33.167Z,12.63
2019-05-10T07:47:02.144Z,12.73
2019-05-10T07:49:32.545Z,12.85
2019-05-10T07:52:02.089Z,12.84
2019-05-10T07:54:29.000Z,12.85
2019-05-10T07:56:57.957Z,12.88
2019-05-10T07:59:30.368Z,12.97
2019-05-10T08:01:55.887Z,12.97
2019-05-10T08:04:28.905Z,13.03
2019-05-10T08:06:53.780Z,13.03
2019-05-10T08:09:22.659Z,13.18
2019-05-10T08:11:53.954Z,13.29
2019-05-10T08:14:20.495Z,13.47
2019-05-10T08:16:58.170Z,13.57
2019-05-10T08:19:18.382Z,13.84
2019-05-10T08:21:53.567Z,14.03
2019-05-10T08:24:16.804Z,14.29
2019-05-10T08:26:45.203Z,14.43
2019-05-10T08:29:16.904Z,14.66
2019-05-10T08:31:50.403Z,15.21
2019-05-10T08:34:12.096Z,15.49
2019-05-10T08:36:45.876Z,16.56
2019-05-10T08:39:13.152Z,16.69
2019-05-10T08:41:39.025Z,16.60
2019-05-10T08:44:16.556Z,16.31
2019-05-10T08:46:41.272Z,15.90
2019-05-10T08:49:06.134Z,15.96
2019-05-10T08:51:43.971Z,16.03
2019-05-10T08:54:04.033Z,15.90
2019-05-10T08:56:33.419Z,15.36
2019-05-10T08:59:03.875Z,14.82
2019-05-10T09:01:38.438Z,14.45
2019-05-10T09:04:04.380Z,14.57
2019-05-10T09:06:28.930Z,14.17
2019-05-10T09:09:01.735Z,14.09
2019-05-10T09:11:26.836Z,14.14
2019-05-10T09:13:57.780Z,14.16
2019-05-10T09:16:29.315Z,14.22
2019-05-10T09:18:53.829Z,14.24
2019-05-10T09:21:22.653Z,14.26
2019-05-10T09:24:01.226Z,14.18
2019-05-10T09:26:22.490Z,14.14
2019-05-10T09:28:53.475Z,14.01
2019-05-10T09:31:22.071Z,13.94
2019-05-10T09:33:49.695Z,13.80
2019-05-10T09:36:16.243Z,14.28
2019-05-10T09:38:46.326Z,14.12
2019-05-10T09:41:14.091Z,14.31
2019-05-10T09:43:48.747Z,14.43
2019-05-10T09:46:18.692Z,14.85
2019-05-10T09:48:45.910Z,15.30
2019-05-10T09:51:19.054Z,15.47
2019-05-10T09:53:43.678Z,15.85
2019-05-10T09:56:12.606Z,16.22
2019-05-10T09:58:41.546Z,16.64
2019-05-10T10:01:17.966Z,16.76
2019-05-10T10:03:43.613Z,16.88
2019-05-10T10:06:11.542Z,17.05
2019-05-10T10:08:43.519Z,16.90
2019-05-10T10:11:15.091Z,16.62
2019-05-10T10:13:43.412Z,16.56
2019-05-10T10:16:14.736Z,16.44
2019-05-10T10:18:39.663Z,16.38
2019-05-10T10:21:18.873Z,17.11
2019-05-10T10:23:49.687Z,17.18
2019-05-10T10:26:22.362Z,18.15
2019-05-10T10:28:57.810Z,18.71
2019-05-10T10:31:32.418Z,18.97
2019-05-10T10:34:08.408Z,18.43
2019-05-10T10:36:42.626Z,17.89
2019-05-10T10:39:08.456Z,17.14
2019-05-10T10:41:39.967Z,16.77
2019-05-10T10:44:10.497Z,16.42
2019-05-10T10:46:47.752Z,16.29
2019-05-10T10:49:17.779Z,16.35
2019-05-10T10:52:13.625Z,16.26
2019-05-10T10:54:57.781Z,16.66
2019-05-10T10:57:31.964Z,16.43
2019-05-10T11:00:01.989Z,16.52
2019-05-10T11:02:34.121Z,16.92
2019-05-10T11:05:09.477Z,17.43
2019-05-10T11:07:51.248Z,17.70
2019-05-10T11:10:22.417Z,18.41
2019-05-10T11:12:51.400Z,18.64
2019-05-10T11:15:27.738Z,18.59
2019-05-10T11:18:05.152Z,18.47
2019-05-10T11:20:41.961Z,18.44
2019-05-10T11:23:12.265Z,18.12
2019-05-10T11:25:50.278Z,17.89
2019-05-10T11:28:12.059Z,17.69
2019-05-10T11:30:48.476Z,17.50
2019-05-10T11:33:29.111Z,17.34
2019-05-10T11:35:51.413Z,17.16
2019-05-10T11:38:22.726Z,16.94
2019-05-10T11:40:51.850Z,16.63
2019-05-10T11:43:25.513Z,16.54
2019-05-10T11:45:51.596Z,16.53
2019-05-10T11:48:23.367Z,16.63
2019-05-10T11:50:55.343Z,16.71
2019-05-10T11:53:42.468Z,16.66
2019-05-10T11:56:14.051Z,16.47
2019-05-10T12:01:26.893Z,16.20
2019-05-10T12:04:05.173Z,16.03
2019-05-10T12:06:51.483Z,15.82
2019-05-10T12:09:24.532Z,15.73
2019-05-10T12:11:56.731Z,15.69
2019-05-10T12:14:28.437Z,15.77
2019-05-10T12:17:05.738Z,15.60
2019-05-10T12:19:36.632Z,15.61
2019-05-10T12:22:04.898Z,15.73
2019-05-10T12:24:53.435Z,15.81
2019-05-10T12:26:00.230Z,16.36
2019-05-10T12:27:13.129Z,16.00
2019-05-10T12:29:32.157Z,16.08
2019-05-10T12:32:01.223Z,16.31
2019-05-10T12:34:34.616Z,16.60
2019-05-10T12:37:08.372Z,16.94
2019-05-10T12:39:55.751Z,16.88
2019-05-10T12:42:27.709Z,16.70
2019-05-10T12:45:01.283Z,16.32
2019-05-10T12:47:30.553Z,15.78
2019-05-10T12:50:02.085Z,15.71
2019-05-10T12:52:32.156Z,15.57
2019-05-10T12:55:01.252Z,15.50
2019-05-10T12:57:31.914Z,15.39
2019-05-10T13:00:00.771Z,15.49
2019-05-10T13:02:36.304Z,15.85
2019-05-10T13:05:09.898Z,16.16
2019-05-10T13:07:46.001Z,16.38
2019-05-10T13:10:21.123Z,16.50
2019-05-10T13:12:52.350Z,16.50
2019-05-10T13:15:24.860Z,16.42
2019-05-10T13:17:54.824Z,16.36
2019-05-10T13:20:23.125Z,16.57
2019-05-10T13:22:58.055Z,16.15
2019-05-10T13:25:32.238Z,16.34
2019-05-10T13:28:11.489Z,15.89
2019-05-10T13:30:46.337Z,15.68
2019-05-10T13:33:28.428Z,15.99
2019-05-10T13:35:50.909Z,15.74
2019-05-10T13:38:18.863Z,15.73
2019-05-10T13:40:48.849Z,15.67
2019-05-10T13:43:26.083Z,15.48
2019-05-10T13:45:47.416Z,15.40
2019-05-10T13:48:17.673Z,15.40
2019-05-10T13:50:49.600Z,15.26
2019-05-10T13:53:23.226Z,15.14
2019-05-10T13:55:50.089Z,15.03
2019-05-10T13:58:22.362Z,14.93
2019-05-10T14:00:57.441Z,14.85
2019-05-10T14:03:43.173Z,14.73
2019-05-10T14:06:01.586Z,14.63
2019-05-10T14:08:32.359Z,14.64
2019-05-10T14:11:03.163Z,15.13
2019-05-10T14:13:35.521Z,14.93
2019-05-10T14:16:03.311Z,15.00
2019-05-10T14:18:41.132Z,15.13
2019-05-10T14:21:10.473Z,15.23
2019-05-10T14:23:40.514Z,15.31
2019-05-10T14:26:16.039Z,15.36
2019-05-10T14:28:39.365Z,15.36
2019-05-10T14:31:16.130Z,15.25
2019-05-10T14:33:49.613Z,15.19
2019-05-10T14:36:14.910Z,15.16
2019-05-10T14:38:47.400Z,15.19
2019-05-10T14:41:14.302Z,15.21
2019-05-10T14:43:45.493Z,15.28
2019-05-10T14:46:16.228Z,15.32
2019-05-10T14:48:48.955Z,15.33
2019-05-10T14:51:44.012Z,15.20
2019-05-10T14:54:06.458Z,15.04
2019-05-10T14:56:28.163Z,14.99
2019-05-10T14:58:57.256Z,14.90
2019-05-10T15:01:27.452Z,14.78
2019-05-10T15:03:59.240Z,15.10
2019-05-10T15:06:30.685Z,14.73
2019-05-10T15:08:58.619Z,14.71
2019-05-10T15:11:33.214Z,14.68
2019-05-10T15:14:03.428Z,14.68
2019-05-10T15:16:32.514Z,14.72
2019-05-10T15:19:06.511Z,14.78
2019-05-10T15:21:43.570Z,14.75
2019-05-10T15:24:14.648Z,14.68
2019-05-10T15:26:46.119Z,14.71
2019-05-10T15:29:21.807Z,14.71
2019-05-10T15:31:45.378Z,14.77
2019-05-10T15:34:14.719Z,14.87
2019-05-10T15:36:49.757Z,14.97
2019-05-10T15:39:23.138Z,15.11
2019-05-10T15:41:53.477Z,15.21
2019-05-10T15:44:30.372Z,15.39
2019-05-10T15:46:51.073Z,15.53
2019-05-10T15:49:23.408Z,15.62
2019-05-10T15:51:54.743Z,15.65
2019-05-10T15:54:17.848Z,15.63
2019-05-10T15:56:46.815Z,15.57
2019-05-10T15:59:19.283Z,15.56
2019-05-10T16:01:45.690Z,15.49
2019-05-10T16:04:13.508Z,15.52
2019-05-10T16:06:42.436Z,15.48
2019-05-10T16:09:17.394Z,15.40
2019-05-10T16:11:40.306Z,15.37
2019-05-10T16:14:09.319Z,15.26
2019-05-10T16:16:39.755Z,15.25
2019-05-10T16:19:07.187Z,15.31
2019-05-10T16:21:36.107Z,15.39
2019-05-10T16:24:05.246Z,15.46
2019-05-10T16:26:34.129Z,15.56
2019-05-10T16:29:03.526Z,15.69
2019-05-10T16:31:31.966Z,15.91
2019-05-10T16:34:00.879Z,16.06
2019-05-10T16:36:30.173Z,16.00
2019-05-10T16:39:01.455Z,16.42
2019-05-10T16:41:27.658Z,16.31
2019-05-10T16:43:57.759Z,16.24
2019-05-10T16:46:25.551Z,15.94
2019-05-10T16:48:54.559Z,15.92
2019-05-10T16:51:23.415Z,15.68
2019-05-10T16:53:52.363Z,15.49
2019-05-10T16:56:21.394Z,15.25
2019-05-10T16:58:53.061Z,15.17
2019-05-10T17:01:25.005Z,15.04
2019-05-10T17:03:51.259Z,14.98
2019-05-10T17:06:17.014Z,15.02
2019-05-10T17:08:45.941Z,15.09
2019-05-10T17:11:14.845Z,15.13
2019-05-10T17:13:43.801Z,15.13
2019-05-10T17:16:17.111Z,15.39
2019-05-10T17:18:41.596Z,15.23
2019-05-10T17:21:10.618Z,15.19
2019-05-10T17:23:41.637Z,15.22
2019-05-10T17:26:08.476Z,15.23
2019-05-10T17:28:37.543Z,15.18
2019-05-10T17:31:09.599Z,15.20
2019-05-10T17:33:36.835Z,15.21
2019-05-10T17:36:08.562Z,15.40
2019-05-10T17:38:33.411Z,15.25
2019-05-10T17:41:02.260Z,15.40
2019-05-10T17:43:33.797Z,15.27
2019-05-10T17:46:02.757Z,15.27
2019-05-10T17:48:31.709Z,15.21
2019-05-10T17:51:00.590Z,15.22
2019-05-10T17:53:29.532Z,15.20
2019-05-10T17:56:02.562Z,15.41
2019-05-10T17:58:32.992Z,15.23
2019-05-10T18:00:56.408Z,15.17
2019-05-10T18:03:25.314Z,15.16
2019-05-10T18:05:54.254Z,15.09
2019-05-10T18:08:23.168Z,15.01
2019-05-10T18:10:57.427Z,14.96
2019-05-10T18:13:21.033Z,14.92
2019-05-10T18:15:49.973Z,14.72
2019-05-10T18:18:18.912Z,14.65
2019-05-10T18:20:47.868Z,14.58
2019-05-10T18:23:21.056Z,14.48
2019-05-10T18:25:45.886Z,14.34
2019-05-10T18:28:17.150Z,14.25
2019-05-10T18:30:45.961Z,14.16
2019-05-10T18:33:14.025Z,14.12
2019-05-10T18:35:41.487Z,14.01
2019-05-10T18:38:10.560Z,13.90
2019-05-10T18:40:39.514Z,13.79
2019-05-10T18:43:08.745Z,13.72
2019-05-10T18:45:37.672Z,13.64
2019-05-10T18:48:09.899Z,13.51
2019-05-10T18:50:39.553Z,13.44
2019-05-10T18:53:06.836Z,13.36
2019-05-10T18:55:35.718Z,13.29
2019-05-10T18:58:06.577Z,13.24
2019-05-10T19:00:33.813Z,13.18
2019-05-10T19:03:02.764Z,13.11
2019-05-10T19:05:33.060Z,13.06
2019-05-10T19:08:04.525Z,13.01
2019-05-10T19:10:29.776Z,12.95
2019-05-10T19:13:01.367Z,12.88
2019-05-10T19:15:27.686Z,12.86
2019-05-10T19:17:56.549Z,12.78
2019-05-10T19:20:25.595Z,12.71
2019-05-10T19:22:54.509Z,12.58
2019-05-10T19:25:23.396Z,12.42
2019-05-10T19:27:52.379Z,12.34
2019-05-10T19:30:22.463Z,12.24
2019-05-10T19:32:51.186Z,12.11
2019-05-10T19:35:19.051Z,11.96
2019-05-10T19:37:47.958Z,11.83
2019-05-10T19:40:16.904Z,11.74
2019-05-10T19:42:49.293Z,11.67
2019-05-10T19:45:19.232Z,11.63
2019-05-10T19:47:43.602Z,11.97
2019-05-10T19:50:12.461Z,11.72
2019-05-10T19:52:41.405Z,11.64
2019-05-10T19:55:18.838Z,11.59
2019-05-10T19:57:39.282Z,11.49
2019-05-10T20:00:08.313Z,11.41
2019-05-10T20:02:37.220Z,11.43
2019-05-10T20:05:06.161Z,11.38
2019-05-10T20:07:45.234Z,11.33
2019-05-10T20:10:07.402Z,11.29
2019-05-10T20:12:32.936Z,11.25
2019-05-10T20:15:01.826Z,11.17
2019-05-10T20:17:30.841Z,11.09
2019-05-10T20:19:59.680Z,10.98
2019-05-10T20:22:28.578Z,10.86
2019-05-10T20:24:57.487Z,10.77
2019-05-10T20:27:26.407Z,10.79
2019-05-10T20:29:55.288Z,11.02
2019-05-10T20:32:24.188Z,10.73
2019-05-10T20:34:53.094Z,10.59
2019-05-10T20:37:22.014Z,10.49
2019-05-10T20:39:50.916Z,10.44
2019-05-10T20:42:19.793Z,10.39
2019-05-10T20:45:05.614Z,10.36
2019-05-10T20:47:17.591Z,10.46
2019-05-10T20:49:46.529Z,10.41
2019-05-10T20:52:15.489Z,10.35
2019-05-10T20:54:44.384Z,10.36
2019-05-10T20:57:13.292Z,10.38
2019-05-10T20:59:42.270Z,10.37
2019-05-10T21:02:11.085Z,10.47
2019-05-10T21:04:39.992Z,10.51
2019-05-10T21:07:08.912Z,10.49
2019-05-10T21:09:37.841Z,10.48
2019-05-10T21:12:06.718Z,10.80
2019-05-10T21:14:35.615Z,10.47
2019-05-10T21:17:04.629Z,10.43
2019-05-10T21:19:33.514Z,10.37
2019-05-10T21:22:02.433Z,10.43
2019-05-10T21:24:31.334Z,10.42
2019-05-10T21:27:00.196Z,10.44
2019-05-10T21:29:29.088Z,10.44
2019-05-10T21:31:57.964Z,10.41
2019-05-10T21:34:26.916Z,10.44
2019-05-10T21:36:55.754Z,10.50
2019-05-10T21:39:24.678Z,10.53
2019-05-10T21:41:53.562Z,10.51
2019-05-10T21:44:22.562Z,10.54
2019-05-10T21:46:53.597Z,10.51
2019-05-10T21:49:20.343Z,10.54
2019-05-10T21:51:49.244Z,10.93
2019-05-10T21:54:18.142Z,10.72
2019-05-10T21:56:47.039Z,10.67
2019-05-10T21:59:15.968Z,10.66
2019-05-10T22:01:44.871Z,11.01
2019-05-10T22:04:13.781Z,10.70
2019-05-10T22:06:42.650Z,10.60
2019-05-10T22:09:11.566Z,10.67
2019-05-10T22:11:40.456Z,10.68
2019-05-10T22:14:09.402Z,10.58
2019-05-10T22:16:38.300Z,10.57
2019-05-10T22:19:07.294Z,10.54
2019-05-10T22:21:36.183Z,10.57
2019-05-10T22:24:05.157Z,10.60
2019-05-10T22:26:34.080Z,10.57
2019-05-10T22:29:03.000Z,10.86
2019-05-10T22:31:31.897Z,10.62
2019-05-10T22:34:00.764Z,10.58
2019-05-10T22:36:29.650Z,10.52
2019-05-10T22:39:07.136Z,10.51
2019-05-10T22:41:27.448Z,10.48
2019-05-10T22:43:56.338Z,10.43
2019-05-10T22:46:25.220Z,10.40
2019-05-10T22:48:54.108Z,10.39
2019-05-10T22:51:23.009Z,10.32
2019-05-10T22:53:59.441Z,10.26
2019-05-10T22:56:20.842Z,10.27
2019-05-10T22:58:49.722Z,10.17
2019-05-10T23:01:18.621Z,10.11
2019-05-10T23:03:47.509Z,10.06
2019-05-10T23:06:16.400Z,10.00
2019-05-10T23:08:45.303Z,10.34
2019-05-10T23:11:14.219Z,10.06
2019-05-10T23:13:43.104Z,9.93
2019-05-10T23:16:11.982Z,9.90
2019-05-10T23:18:40.953Z,9.86
2019-05-10T23:21:09.855Z,9.83
2019-05-10T23:23:38.754Z,9.78
2019-05-10T23:26:07.665Z,9.72
2019-05-10T23:28:36.566Z,9.61
2019-05-10T23:31:05.515Z,9.54
2019-05-10T23:33:34.404Z,9.48
2019-05-10T23:36:03.311Z,9.55
2019-05-10T23:38:32.216Z,9.43
2019-05-10T23:41:01.117Z,9.37
2019-05-10T23:43:30.037Z,9.27
2019-05-10T23:45:58.932Z,9.17
2019-05-10T23:48:27.851Z,9.10
2019-05-10T23:50:56.761Z,9.08
2019-05-10T23:53:25.654Z,9.14
2019-05-10T23:55:54.554Z,9.15
2019-05-10T23:58:23.451Z,9.17
